createdAt,value
2022-09-12T00:00:22.766Z,0.00
2022-09-12T00:01:22.809Z,0.00
2022-09-12T00:02:22.746Z,0.00
2022-09-12T00:03:22.695Z,0.00
2022-09-12T00:04:22.732Z,0.00
2022-09-12T00:05:22.632Z,0.00
2022-09-12T00:06:23.371Z,0.00
2022-09-12T00:07:22.581Z,0.00
2022-09-12T00:08:22.547Z,0.00
2022-09-12T00:09:22.526Z,0.00
2022-09-12T00:10:22.555Z,0.00
2022-09-12T00:11:22.412Z,0.00
2022-09-12T00:12:22.400Z,0.00
2022-09-12T00:13:22.382Z,0.00
2022-09-12T00:14:22.359Z,0.00
2022-09-12T00:15:22.351Z,0.00
2022-09-12T00:16:22.427Z,0.00
2022-09-12T00:17:22.243Z,0.00
2022-09-12T00:18:22.224Z,0.00
2022-09-12T00:19:22.171Z,0.00
2022-09-12T00:20:22.150Z,0.00
2022-09-12T00:21:22.113Z,0.00
2022-09-12T00:22:22.187Z,0.00
2022-09-12T00:23:22.036Z,0.00
2022-09-12T00:24:22.074Z,0.00
2022-09-12T00:25:21.977Z,0.00
2022-09-12T00:26:22.017Z,0.00
2022-09-12T00:27:21.908Z,0.00
2022-09-12T00:28:21.873Z,0.00
2022-09-12T00:29:21.843Z,0.00
2022-09-12T00:30:21.814Z,0.00
2022-09-12T00:31:21.937Z,0.00
2022-09-12T00:32:21.761Z,0.00
2022-09-12T00:33:21.796Z,0.00
2022-09-12T00:34:21.702Z,0.00
2022-09-12T00:35:21.678Z,0.00
2022-09-12T00:36:21.684Z,0.00
2022-09-12T00:37:21.627Z,0.00
2022-09-12T00:38:21.573Z,0.00
2022-09-12T00:39:21.538Z,0.00
2022-09-12T00:40:21.498Z,0.00
2022-09-12T00:41:23.449Z,0.00
2022-09-12T00:42:21.443Z,0.00
2022-09-12T00:43:21.462Z,0.00
2022-09-12T00:44:21.433Z,0.00
2022-09-12T00:45:21.357Z,0.00
2022-09-12T00:46:21.310Z,0.00
2022-09-12T00:47:21.378Z,0.00
2022-09-12T00:48:21.257Z,0.00
2022-09-12T00:49:21.221Z,0.00
2022-09-12T00:50:21.198Z,0.00
2022-09-12T00:51:21.165Z,0.00
2022-09-12T00:52:21.128Z,0.00
2022-09-12T00:53:21.156Z,0.00
2022-09-12T00:54:21.074Z,0.00
2022-09-12T00:55:21.012Z,0.00
2022-09-12T00:56:20.988Z,0.00
2022-09-12T00:57:20.967Z,0.00
2022-09-12T00:58:20.938Z,0.00
2022-09-12T00:59:20.981Z,0.00
2022-09-12T01:00:20.868Z,0.00
2022-09-12T01:01:20.877Z,0.00
2022-09-12T01:02:20.820Z,0.00
2022-09-12T01:03:20.756Z,0.00
2022-09-12T01:04:20.803Z,0.00
2022-09-12T01:05:20.763Z,0.00
2022-09-12T01:06:20.695Z,0.00
2022-09-12T01:07:20.650Z,0.00
2022-09-12T01:08:20.601Z,0.00
2022-09-12T01:09:20.588Z,0.00
2022-09-12T01:10:20.877Z,0.00
2022-09-12T01:11:20.510Z,0.00
2022-09-12T01:12:20.486Z,0.00
2022-09-12T01:13:20.443Z,0.00
2022-09-12T01:14:20.431Z,0.00
2022-09-12T01:15:20.383Z,0.00
2022-09-12T01:16:20.452Z,0.00
2022-09-12T01:17:20.348Z,0.00
2022-09-12T01:18:20.306Z,0.00
2022-09-12T01:19:20.246Z,0.00
2022-09-12T01:20:20.217Z,0.00
2022-09-12T01:21:20.259Z,0.00
2022-09-12T01:22:20.162Z,0.00
2022-09-12T01:23:20.118Z,0.00
2022-09-12T01:24:20.088Z,0.00
2022-09-12T01:25:20.086Z,0.00
2022-09-12T01:26:20.038Z,0.00
2022-09-12T01:27:20.048Z,0.00
2022-09-12T01:28:19.957Z,0.00
2022-09-12T01:29:19.924Z,0.00
2022-09-12T01:30:19.918Z,0.00
2022-09-12T01:31:19.862Z,0.00
2022-09-12T01:32:19.945Z,0.00
2022-09-12T01:33:19.848Z,0.00
2022-09-12T01:34:19.828Z,0.00
2022-09-12T01:35:19.719Z,0.00
2022-09-12T01:36:19.721Z,0.00
2022-09-12T01:37:19.665Z,0.00
2022-09-12T01:38:19.713Z,0.00
2022-09-12T01:39:19.610Z,0.00
2022-09-12T01:40:19.565Z,0.00
2022-09-12T01:41:20.416Z,0.00
2022-09-12T01:42:19.566Z,0.00
2022-09-12T01:43:19.457Z,0.00
2022-09-12T01:44:20.043Z,0.00
2022-09-12T01:45:20.283Z,0.00
2022-09-12T01:46:19.368Z,0.00
2022-09-12T01:47:19.339Z,0.00
2022-09-12T01:48:19.333Z,0.00
2022-09-12T01:49:19.628Z,0.00
2022-09-12T01:50:19.329Z,0.00
2022-09-12T01:51:19.201Z,0.00
2022-09-12T01:52:19.238Z,0.00
2022-09-12T01:53:19.189Z,0.00
2022-09-12T01:54:19.132Z,0.00
2022-09-12T01:55:19.135Z,0.00
2022-09-12T01:56:19.059Z,0.00
2022-09-12T01:57:19.047Z,0.00
2022-09-12T01:58:18.982Z,0.00
2022-09-12T01:59:19.016Z,0.00
2022-09-12T02:00:19.089Z,0.00
2022-09-12T02:01:18.929Z,0.00
2022-09-12T02:02:18.890Z,0.00
2022-09-12T02:03:18.814Z,0.00
2022-09-12T02:04:18.847Z,0.00
2022-09-12T02:05:19.123Z,0.00
2022-09-12T02:06:18.729Z,0.00
2022-09-12T02:07:18.710Z,0.00
2022-09-12T02:08:18.677Z,0.00
2022-09-12T02:09:18.632Z,0.00
2022-09-12T02:10:18.587Z,0.00
2022-09-12T02:11:18.640Z,0.00
2022-09-12T02:12:18.536Z,0.00
2022-09-12T02:13:18.495Z,0.00
2022-09-12T02:14:18.502Z,0.00
2022-09-12T02:15:18.419Z,0.00
2022-09-12T02:16:18.510Z,0.00
2022-09-12T02:17:18.354Z,0.00
2022-09-12T02:18:18.382Z,0.00
2022-09-12T02:19:18.322Z,0.00
2022-09-12T02:20:44.046Z,0.00
2022-09-12T02:21:18.248Z,0.00
2022-09-12T02:22:18.478Z,0.00
2022-09-12T02:23:18.163Z,0.00
2022-09-12T02:24:18.137Z,0.00
2022-09-12T02:25:18.104Z,0.00
2022-09-12T02:26:18.087Z,0.00
2022-09-12T02:27:18.793Z,0.00
2022-09-12T02:28:18.119Z,0.00
2022-09-12T02:29:17.992Z,0.00
2022-09-12T02:30:17.938Z,0.00
2022-09-12T02:31:17.915Z,0.00
2022-09-12T02:32:17.961Z,0.00
2022-09-12T02:33:17.869Z,0.00
2022-09-12T02:34:17.917Z,0.00
2022-09-12T02:35:17.797Z,0.00
2022-09-12T02:36:17.763Z,0.00
2022-09-12T02:37:17.787Z,0.00
2022-09-12T02:38:17.736Z,0.00
2022-09-12T02:39:17.657Z,0.00
2022-09-12T02:40:17.722Z,0.00
2022-09-12T02:41:23.295Z,0.00
2022-09-12T02:42:17.619Z,0.00
2022-09-12T02:43:17.540Z,0.00
2022-09-12T02:44:17.483Z,0.00
2022-09-12T02:45:17.472Z,0.00
2022-09-12T02:46:17.440Z,0.00
2022-09-12T02:47:17.468Z,0.00
2022-09-12T02:48:17.363Z,0.00
2022-09-12T02:49:17.336Z,0.00
2022-09-12T02:50:17.273Z,0.00
2022-09-12T02:51:20.385Z,0.00
2022-09-12T02:52:17.224Z,0.00
2022-09-12T02:53:17.264Z,0.00
2022-09-12T02:54:17.152Z,0.00
2022-09-12T02:55:17.120Z,0.00
2022-09-12T02:56:17.120Z,0.00
2022-09-12T02:57:21.867Z,0.00
2022-09-12T02:58:17.077Z,0.00
2022-09-12T02:59:17.049Z,0.00
2022-09-12T03:00:17.027Z,0.00
2022-09-12T03:01:21.848Z,0.00
2022-09-12T03:02:16.916Z,0.00
2022-09-12T03:03:16.857Z,0.00
2022-09-12T03:04:16.875Z,0.00
2022-09-12T03:05:16.788Z,0.00
2022-09-12T03:06:16.760Z,0.00
2022-09-12T03:07:16.855Z,0.00
2022-09-12T03:08:17.306Z,0.00
2022-09-12T03:09:16.721Z,0.00
2022-09-12T03:10:16.653Z,0.00
2022-09-12T03:11:16.589Z,0.00
2022-09-12T03:12:16.559Z,0.00
2022-09-12T03:13:16.546Z,0.00
2022-09-12T03:14:16.582Z,0.00
2022-09-12T03:15:16.466Z,0.00
2022-09-12T03:16:16.499Z,0.00
2022-09-12T03:17:16.415Z,0.00
2022-09-12T03:18:16.383Z,0.00
2022-09-12T03:19:16.397Z,0.00
2022-09-12T03:20:16.349Z,0.00
2022-09-12T03:21:16.263Z,0.00
2022-09-12T03:22:16.221Z,0.00
2022-09-12T03:23:16.222Z,0.00
2022-09-12T03:24:16.158Z,0.00
2022-09-12T03:25:16.180Z,0.00
2022-09-12T03:26:16.143Z,0.00
2022-09-12T03:27:16.067Z,0.00
2022-09-12T03:28:16.039Z,0.00
2022-09-12T03:29:16.001Z,0.00
2022-09-12T03:30:16.054Z,0.00
2022-09-12T03:31:15.925Z,0.00
2022-09-12T03:32:15.891Z,0.00
2022-09-12T03:33:15.859Z,0.00
2022-09-12T03:34:15.820Z,0.00
2022-09-12T03:35:17.938Z,0.00
2022-09-12T03:36:15.865Z,0.00
2022-09-12T03:37:15.800Z,0.00
2022-09-12T03:38:15.699Z,0.00
2022-09-12T03:39:15.657Z,0.00
2022-09-12T03:40:15.671Z,0.00
2022-09-12T03:41:15.657Z,0.00
2022-09-12T03:42:15.618Z,0.00
2022-09-12T03:43:15.521Z,0.00
2022-09-12T03:44:15.486Z,0.00
2022-09-12T03:45:15.465Z,0.00
2022-09-12T03:46:15.435Z,0.00
2022-09-12T03:47:15.449Z,0.00
2022-09-12T03:48:15.419Z,0.00
2022-09-12T03:49:15.336Z,0.00
2022-09-12T03:50:15.303Z,0.00
2022-09-12T03:51:15.260Z,0.00
2022-09-12T03:52:15.230Z,0.00
2022-09-12T03:53:17.258Z,0.00
2022-09-12T03:54:15.222Z,0.00
2022-09-12T03:55:15.144Z,0.00
2022-09-12T03:56:15.096Z,0.00
2022-09-12T03:57:15.059Z,0.00
2022-09-12T03:58:15.032Z,0.00
2022-09-12T03:59:15.064Z,0.00
2022-09-12T04:00:19.608Z,0.00
2022-09-12T04:01:15.009Z,0.00
2022-09-12T04:02:14.932Z,0.00
2022-09-12T04:03:14.863Z,0.00
2022-09-12T04:04:14.838Z,0.00
2022-09-12T04:05:14.877Z,0.00
2022-09-12T04:06:14.762Z,0.00
2022-09-12T04:07:14.733Z,0.00
2022-09-12T04:08:14.699Z,0.00
2022-09-12T04:09:14.667Z,0.00
2022-09-12T04:10:16.211Z,0.00
2022-09-12T04:11:14.679Z,0.00
2022-09-12T04:12:14.567Z,0.00
2022-09-12T04:13:14.535Z,0.00
2022-09-12T04:14:14.498Z,0.00
2022-09-12T04:15:14.473Z,0.00
2022-09-12T04:16:14.482Z,0.00
2022-09-12T04:17:14.454Z,0.00
2022-09-12T04:18:14.370Z,0.00
2022-09-12T04:19:14.330Z,0.00
2022-09-12T04:20:14.337Z,0.00
2022-09-12T04:21:14.269Z,0.00
2022-09-12T04:22:14.304Z,0.00
2022-09-12T04:23:14.276Z,0.00
2022-09-12T04:24:14.338Z,0.00
2022-09-12T04:25:14.134Z,0.00
2022-09-12T04:26:14.123Z,0.00
2022-09-12T04:27:14.072Z,5.63
2022-09-12T04:28:14.089Z,5.63
2022-09-12T04:29:14.002Z,5.63
2022-09-12T04:30:13.975Z,5.63
2022-09-12T04:31:13.961Z,5.63
2022-09-12T04:32:13.915Z,5.63
2022-09-12T04:33:14.073Z,5.63
2022-09-12T04:34:13.850Z,11.25
2022-09-12T04:35:13.822Z,11.25
2022-09-12T04:36:13.780Z,11.25
2022-09-12T04:37:13.736Z,11.25
2022-09-12T04:38:13.707Z,11.25
2022-09-12T04:39:13.779Z,16.88
2022-09-12T04:40:13.680Z,16.88
2022-09-12T04:41:13.612Z,16.88
2022-09-12T04:42:13.576Z,16.88
2022-09-12T04:43:14.647Z,22.50
2022-09-12T04:44:13.510Z,22.50
2022-09-12T04:45:13.529Z,22.50
2022-09-12T04:46:13.456Z,22.50
2022-09-12T04:47:13.410Z,28.13
2022-09-12T04:48:13.446Z,28.13
2022-09-12T04:49:13.340Z,28.13
2022-09-12T04:50:13.307Z,33.75
2022-09-12T04:51:13.275Z,33.75
2022-09-12T04:52:13.236Z,33.75
2022-09-12T04:53:13.204Z,39.38
2022-09-12T04:54:13.253Z,39.38
2022-09-12T04:55:13.139Z,39.38
2022-09-12T04:56:13.108Z,45.00
2022-09-12T04:57:13.070Z,45.00
2022-09-12T04:58:13.035Z,50.63
2022-09-12T04:59:13.015Z,50.63
2022-09-12T05:00:13.220Z,50.63
2022-09-12T05:01:13.001Z,50.63
2022-09-12T05:02:12.934Z,56.25
2022-09-12T05:03:12.891Z,56.25
2022-09-12T05:04:12.842Z,56.25
2022-09-12T05:05:12.821Z,61.88
2022-09-12T05:06:12.884Z,61.88
2022-09-12T05:07:12.742Z,67.50
2022-09-12T05:08:12.710Z,67.50
2022-09-12T05:09:12.694Z,67.50
2022-09-12T05:10:12.647Z,67.50
2022-09-12T05:11:12.608Z,73.13
2022-09-12T05:12:12.621Z,73.13
2022-09-12T05:13:12.540Z,78.75
2022-09-12T05:14:12.515Z,78.75
2022-09-12T05:15:12.534Z,78.75
2022-09-12T05:16:12.489Z,78.75
2022-09-12T05:17:12.500Z,78.75
2022-09-12T05:18:12.377Z,84.38
2022-09-12T05:19:12.346Z,84.38
2022-09-12T05:20:12.311Z,84.38
2022-09-12T05:21:12.273Z,90.00
2022-09-12T05:22:12.244Z,90.00
2022-09-12T05:23:12.283Z,90.00
2022-09-12T05:24:12.186Z,95.63
2022-09-12T05:25:12.142Z,95.63
2022-09-12T05:26:12.113Z,101.25
2022-09-12T05:27:12.079Z,101.25
2022-09-12T05:28:12.201Z,101.25
2022-09-12T05:29:12.009Z,106.88
2022-09-12T05:30:11.974Z,106.88
2022-09-12T05:31:11.988Z,106.88
2022-09-12T05:32:11.908Z,106.88
2022-09-12T05:33:11.876Z,112.50
2022-09-12T05:34:12.278Z,112.50
2022-09-12T05:35:11.827Z,118.13
2022-09-12T05:36:11.770Z,118.13
2022-09-12T05:37:11.747Z,118.13
2022-09-12T05:38:11.711Z,118.13
2022-09-12T05:39:11.726Z,123.75
2022-09-12T05:40:12.053Z,123.75
2022-09-12T05:41:16.937Z,129.38
2022-09-12T05:42:11.590Z,129.38
2022-09-12T05:43:11.547Z,129.38
2022-09-12T05:44:11.512Z,129.38
2022-09-12T05:45:11.486Z,140.63
2022-09-12T05:46:11.558Z,140.63
2022-09-12T05:47:11.415Z,140.63
2022-09-12T05:48:11.397Z,146.25
2022-09-12T05:49:11.418Z,135.00
2022-09-12T05:50:11.309Z,135.00
2022-09-12T05:51:11.287Z,140.63
2022-09-12T05:52:11.294Z,146.25
2022-09-12T05:53:11.288Z,151.88
2022-09-12T05:54:11.261Z,163.13
2022-09-12T05:55:11.152Z,157.50
2022-09-12T05:56:11.187Z,163.13
2022-09-12T05:57:11.084Z,163.13
2022-09-12T05:58:11.056Z,163.13
2022-09-12T05:59:11.080Z,168.75
2022-09-12T06:00:10.990Z,174.38
2022-09-12T06:01:10.994Z,180.00
2022-09-12T06:02:10.983Z,168.75
2022-09-12T06:03:10.891Z,168.75
2022-09-12T06:04:12.562Z,168.75
2022-09-12T06:05:10.827Z,163.13
2022-09-12T06:06:10.793Z,163.13
2022-09-12T06:07:10.760Z,168.75
2022-09-12T06:08:10.736Z,168.75
2022-09-12T06:09:10.699Z,168.75
2022-09-12T06:10:10.717Z,163.13
2022-09-12T06:11:10.635Z,163.13
2022-09-12T06:12:10.606Z,157.50
2022-09-12T06:13:10.615Z,151.88
2022-09-12T06:14:10.537Z,151.88
2022-09-12T06:15:12.342Z,151.88
2022-09-12T06:16:11.357Z,151.88
2022-09-12T06:17:10.442Z,151.88
2022-09-12T06:18:10.411Z,151.88
2022-09-12T06:19:10.376Z,151.88
2022-09-12T06:20:10.337Z,151.88
2022-09-12T06:21:10.436Z,151.88
2022-09-12T06:22:10.844Z,151.88
2022-09-12T06:23:10.244Z,151.88
2022-09-12T06:24:10.212Z,151.88
2022-09-12T06:25:10.183Z,151.88
2022-09-12T06:26:10.148Z,151.88
2022-09-12T06:27:10.173Z,157.50
2022-09-12T06:28:10.081Z,157.50
2022-09-12T06:29:10.058Z,157.50
2022-09-12T06:30:10.020Z,157.50
2022-09-12T06:31:10.010Z,157.50
2022-09-12T06:32:10.022Z,157.50
2022-09-12T06:33:09.972Z,157.50
2022-09-12T06:34:09.913Z,157.50
2022-09-12T06:35:09.884Z,157.50
2022-09-12T06:36:12.344Z,157.50
2022-09-12T06:37:09.840Z,157.50
2022-09-12T06:38:09.858Z,163.13
2022-09-12T06:39:09.734Z,163.13
2022-09-12T06:40:09.775Z,163.13
2022-09-12T06:41:09.681Z,163.13
2022-09-12T06:42:09.644Z,163.13
2022-09-12T06:43:09.623Z,163.13
2022-09-12T06:44:09.652Z,163.13
2022-09-12T06:45:09.550Z,163.13
2022-09-12T06:46:09.560Z,163.13
2022-09-12T06:47:09.479Z,163.13
2022-09-12T06:48:09.447Z,163.13
2022-09-12T06:49:09.415Z,163.13
2022-09-12T06:50:09.445Z,163.13
2022-09-12T06:51:09.350Z,163.13
2022-09-12T06:52:09.317Z,163.13
2022-09-12T06:53:09.285Z,163.13
2022-09-12T06:54:09.263Z,163.13
2022-09-12T06:55:09.223Z,163.13
2022-09-12T06:56:09.244Z,163.13
2022-09-12T06:57:09.219Z,168.75
2022-09-12T06:58:09.150Z,168.75
2022-09-12T06:59:09.100Z,168.75
2022-09-12T07:00:09.066Z,168.75
2022-09-12T07:01:09.088Z,168.75
2022-09-12T07:02:10.115Z,168.75
2022-09-12T07:03:08.974Z,168.75
2022-09-12T07:04:08.939Z,168.75
2022-09-12T07:05:08.905Z,168.75
2022-09-12T07:06:08.891Z,168.75
2022-09-12T07:07:08.853Z,168.75
2022-09-12T07:08:08.911Z,168.75
2022-09-12T07:09:08.784Z,168.75
2022-09-12T07:10:08.787Z,168.75
2022-09-12T07:11:08.736Z,168.75
2022-09-12T07:12:08.688Z,174.38
2022-09-12T07:13:08.658Z,174.38
2022-09-12T07:14:08.762Z,174.38
2022-09-12T07:15:08.601Z,174.38
2022-09-12T07:16:08.566Z,174.38
2022-09-12T07:17:08.595Z,174.38
2022-09-12T07:18:08.683Z,174.38
2022-09-12T07:19:08.475Z,174.38
2022-09-12T07:20:08.436Z,174.38
2022-09-12T07:21:08.407Z,174.38
2022-09-12T07:22:08.381Z,174.38
2022-09-12T07:23:08.350Z,174.38
2022-09-12T07:24:08.379Z,174.38
2022-09-12T07:25:08.281Z,180.00
2022-09-12T07:26:08.251Z,180.00
2022-09-12T07:27:08.224Z,180.00
2022-09-12T07:28:08.194Z,180.00
2022-09-12T07:29:34.887Z,180.00
2022-09-12T07:30:08.140Z,180.00
2022-09-12T07:31:08.153Z,180.00
2022-09-12T07:32:08.065Z,180.00
2022-09-12T07:33:08.028Z,180.00
2022-09-12T07:34:08.006Z,180.00
2022-09-12T07:35:08.608Z,185.63
2022-09-12T07:36:07.940Z,185.63
2022-09-12T07:37:07.912Z,185.63
2022-09-12T07:38:07.888Z,185.63
2022-09-12T07:39:07.874Z,185.63
2022-09-12T07:40:07.917Z,191.25
2022-09-12T07:41:07.920Z,191.25
2022-09-12T07:42:07.763Z,191.25
2022-09-12T07:43:07.736Z,191.25
2022-09-12T07:44:07.694Z,191.25
2022-09-12T07:45:07.663Z,191.25
2022-09-12T07:46:07.691Z,191.25
2022-09-12T07:47:07.715Z,191.25
2022-09-12T07:48:07.645Z,191.25
2022-09-12T07:49:08.398Z,191.25
2022-09-12T07:50:07.516Z,185.63
2022-09-12T07:51:07.489Z,191.25
2022-09-12T07:52:07.456Z,191.25
2022-09-12T07:53:07.418Z,191.25
2022-09-12T07:54:07.594Z,191.25
2022-09-12T07:55:07.357Z,191.25
2022-09-12T07:56:07.330Z,191.25
2022-09-12T07:57:07.295Z,191.25
2022-09-12T07:58:07.270Z,185.63
2022-09-12T07:59:07.234Z,185.63
2022-09-12T08:01:39.325Z,185.63
2022-09-12T08:02:39.247Z,185.63
2022-09-12T08:03:39.188Z,185.63
2022-09-12T08:04:39.159Z,185.63
2022-09-12T08:05:39.131Z,185.63
2022-09-12T08:06:39.286Z,185.63
2022-09-12T08:07:39.067Z,185.63
2022-09-12T08:08:39.037Z,185.63
2022-09-12T08:09:39.007Z,185.63
2022-09-12T08:10:38.970Z,185.63
2022-09-12T08:11:38.952Z,185.63
2022-09-12T08:12:39.002Z,185.63
2022-09-12T08:13:52.974Z,185.63
2022-09-12T08:14:38.886Z,185.63
2022-09-12T08:15:38.880Z,185.63
2022-09-12T08:16:38.814Z,185.63
2022-09-12T08:17:38.762Z,191.25
2022-09-12T08:18:38.854Z,191.25
2022-09-12T08:19:38.698Z,191.25
2022-09-12T08:20:38.666Z,191.25
2022-09-12T08:21:38.630Z,185.63
2022-09-12T08:22:38.612Z,185.63
2022-09-12T08:23:38.577Z,185.63
2022-09-12T08:24:38.634Z,185.63
2022-09-12T08:25:38.511Z,185.63
2022-09-12T08:26:38.483Z,185.63
2022-09-12T08:27:38.456Z,185.63
2022-09-12T08:28:38.425Z,185.63
2022-09-12T08:29:38.449Z,185.63
2022-09-12T08:30:38.397Z,191.25
2022-09-12T08:31:38.331Z,191.25
2022-09-12T08:32:38.306Z,191.25
2022-09-12T08:33:38.268Z,191.25
2022-09-12T08:34:38.247Z,185.63
2022-09-12T08:35:38.267Z,185.63
2022-09-12T08:36:38.187Z,185.63
2022-09-12T08:37:38.152Z,185.63
2022-09-12T08:38:38.168Z,185.63
2022-09-12T08:39:38.188Z,185.63
2022-09-12T08:40:38.128Z,185.63
2022-09-12T08:41:38.037Z,191.25
2022-09-12T08:42:37.994Z,191.25
2022-09-12T08:43:37.976Z,191.25
2022-09-12T08:44:37.941Z,191.25
2022-09-12T08:45:37.976Z,191.25
2022-09-12T08:46:37.937Z,191.25
2022-09-12T08:47:37.851Z,191.25
2022-09-12T08:48:37.820Z,191.25
2022-09-12T08:49:37.789Z,191.25
2022-09-12T08:50:37.757Z,191.25
2022-09-12T08:51:37.851Z,191.25
2022-09-12T08:52:37.716Z,191.25
2022-09-12T08:53:37.667Z,196.88
2022-09-12T08:54:37.644Z,191.25
2022-09-12T08:55:37.608Z,191.25
2022-09-12T08:56:37.603Z,196.88
2022-09-12T08:57:37.725Z,191.25
2022-09-12T08:58:37.519Z,191.25
2022-09-12T08:59:37.485Z,191.25
2022-09-12T09:00:37.462Z,191.25
2022-09-12T09:01:37.500Z,196.88
2022-09-12T09:02:37.445Z,196.88
2022-09-12T09:03:37.462Z,196.88
2022-09-12T09:04:37.338Z,202.50
2022-09-12T09:05:37.310Z,196.88
2022-09-12T09:06:37.276Z,208.13
2022-09-12T09:07:37.300Z,208.13
2022-09-12T09:08:37.219Z,219.38
2022-09-12T09:09:37.268Z,208.13
2022-09-12T09:10:37.160Z,208.13
2022-09-12T09:11:37.141Z,208.13
2022-09-12T09:12:37.108Z,208.13
2022-09-12T09:13:37.073Z,208.13
2022-09-12T09:14:37.041Z,208.13
2022-09-12T09:15:37.140Z,208.13
2022-09-12T09:16:36.993Z,208.13
2022-09-12T09:17:36.950Z,208.13
2022-09-12T09:18:36.921Z,208.13
2022-09-12T09:19:36.894Z,213.75
2022-09-12T09:20:37.063Z,213.75
2022-09-12T09:21:36.837Z,219.38
2022-09-12T09:22:36.798Z,225.00
2022-09-12T09:23:36.779Z,225.00
2022-09-12T09:24:36.748Z,230.63
2022-09-12T09:25:36.713Z,230.63
2022-09-12T09:26:38.825Z,236.25
2022-09-12T09:27:40.957Z,241.88
2022-09-12T09:28:36.632Z,241.88
2022-09-12T09:29:36.595Z,241.88
2022-09-12T09:30:36.642Z,247.50
2022-09-12T09:31:36.758Z,247.50
2022-09-12T09:32:36.509Z,247.50
2022-09-12T09:33:36.487Z,236.25
2022-09-12T09:34:36.444Z,230.63
2022-09-12T09:35:36.840Z,225.00
2022-09-12T09:36:36.387Z,225.00
2022-09-12T09:37:36.452Z,225.00
2022-09-12T09:38:36.350Z,225.00
2022-09-12T09:39:36.363Z,225.00
2022-09-12T09:40:36.274Z,225.00
2022-09-12T09:41:36.297Z,225.00
2022-09-12T09:42:36.258Z,225.00
2022-09-12T09:43:36.259Z,225.00
2022-09-12T09:44:36.177Z,230.63
2022-09-12T09:45:36.123Z,236.25
2022-09-12T09:46:36.141Z,236.25
2022-09-12T09:47:36.085Z,236.25
2022-09-12T09:48:36.155Z,241.88
2022-09-12T09:49:36.043Z,241.88
2022-09-12T09:50:36.012Z,236.25
2022-09-12T09:51:36.964Z,236.25
2022-09-12T09:52:35.926Z,236.25
2022-09-12T09:53:35.909Z,236.25
2022-09-12T09:54:35.934Z,236.25
2022-09-12T09:55:35.880Z,241.88
2022-09-12T09:56:35.871Z,253.13
2022-09-12T09:57:35.784Z,270.00
2022-09-12T09:58:35.789Z,286.88
2022-09-12T09:59:35.781Z,298.13
2022-09-12T10:00:35.732Z,309.38
2022-09-12T10:01:35.677Z,315.00
2022-09-12T10:02:35.678Z,315.00
2022-09-12T10:03:35.809Z,315.00
2022-09-12T10:04:40.615Z,331.88
2022-09-12T10:05:35.547Z,343.13
2022-09-12T10:06:35.543Z,343.13
2022-09-12T10:07:35.499Z,326.25
2022-09-12T10:08:35.540Z,303.75
2022-09-12T10:09:35.489Z,309.38
2022-09-12T10:10:35.457Z,303.75
2022-09-12T10:11:35.397Z,298.13
2022-09-12T10:12:35.366Z,281.25
2022-09-12T10:13:35.408Z,286.88
2022-09-12T10:14:35.302Z,298.13
2022-09-12T10:15:36.174Z,303.75
2022-09-12T10:16:35.243Z,309.38
2022-09-12T10:17:35.204Z,320.63
2022-09-12T10:18:35.177Z,326.25
2022-09-12T10:19:35.159Z,343.13
2022-09-12T10:20:35.236Z,360.00
2022-09-12T10:21:35.109Z,376.88
2022-09-12T10:22:35.073Z,382.50
2022-09-12T10:23:35.160Z,388.13
2022-09-12T10:24:35.019Z,388.13
2022-09-12T10:25:35.233Z,382.50
2022-09-12T10:26:34.960Z,371.25
2022-09-12T10:27:34.954Z,360.00
2022-09-12T10:28:34.989Z,365.63
2022-09-12T10:29:34.894Z,348.75
2022-09-12T10:30:35.456Z,354.38
2022-09-12T10:31:35.072Z,337.50
2022-09-12T10:32:34.791Z,348.75
2022-09-12T10:33:34.767Z,354.38
2022-09-12T10:34:34.761Z,360.00
2022-09-12T10:35:34.711Z,365.63
2022-09-12T10:36:34.711Z,365.63
2022-09-12T10:37:34.727Z,354.38
2022-09-12T10:38:34.625Z,348.75
2022-09-12T10:39:34.608Z,343.13
2022-09-12T10:40:34.609Z,348.75
2022-09-12T10:41:34.573Z,376.88
2022-09-12T10:42:34.577Z,399.38
2022-09-12T10:43:34.495Z,416.25
2022-09-12T10:44:34.478Z,433.13
2022-09-12T10:45:34.440Z,461.25
2022-09-12T10:46:34.404Z,478.13
2022-09-12T10:47:34.451Z,511.88
2022-09-12T10:48:34.355Z,540.00
2022-09-12T10:49:34.323Z,545.63
2022-09-12T10:50:34.300Z,579.38
2022-09-12T10:51:34.275Z,607.50
2022-09-12T10:52:34.317Z,596.25
2022-09-12T10:53:34.835Z,556.88
2022-09-12T10:54:34.191Z,540.00
2022-09-12T10:55:34.203Z,495.00
2022-09-12T10:56:34.172Z,466.88
2022-09-12T10:57:34.182Z,438.75
2022-09-12T10:58:34.175Z,405.00
2022-09-12T10:59:34.079Z,371.25
2022-09-12T11:00:34.039Z,365.63
2022-09-12T11:01:34.163Z,360.00
2022-09-12T11:02:35.001Z,360.00
2022-09-12T11:03:34.021Z,365.63
2022-09-12T11:04:33.927Z,365.63
2022-09-12T11:05:33.915Z,371.25
2022-09-12T11:06:33.936Z,354.38
2022-09-12T11:07:33.851Z,348.75
2022-09-12T11:08:33.836Z,348.75
2022-09-12T11:09:33.849Z,326.25
2022-09-12T11:10:36.887Z,315.00
2022-09-12T11:11:33.781Z,309.38
2022-09-12T11:12:33.726Z,309.38
2022-09-12T11:13:33.688Z,326.25
2022-09-12T11:14:33.786Z,337.50
2022-09-12T11:15:33.722Z,337.50
2022-09-12T11:16:33.623Z,343.13
2022-09-12T11:17:33.579Z,337.50
2022-09-12T11:18:33.553Z,343.13
2022-09-12T11:19:33.542Z,354.38
2022-09-12T11:20:33.571Z,360.00
2022-09-12T11:21:33.482Z,348.75
2022-09-12T11:22:33.454Z,343.13
2022-09-12T11:23:33.427Z,354.38
2022-09-12T11:24:33.400Z,371.25
2022-09-12T11:25:33.487Z,371.25
2022-09-12T11:26:33.363Z,382.50
2022-09-12T11:27:33.315Z,399.38
2022-09-12T11:28:33.343Z,416.25
2022-09-12T11:29:33.322Z,427.50
2022-09-12T11:30:33.320Z,438.75
2022-09-12T11:31:33.296Z,444.38
2022-09-12T11:32:33.205Z,450.00
2022-09-12T11:33:33.169Z,433.13
2022-09-12T11:34:33.150Z,410.63
2022-09-12T11:35:33.112Z,382.50
2022-09-12T11:36:33.136Z,376.88
2022-09-12T11:37:33.126Z,371.25
2022-09-12T11:38:33.077Z,360.00
2022-09-12T11:39:33.004Z,354.38
2022-09-12T11:40:32.993Z,354.38
2022-09-12T11:41:32.959Z,348.75
2022-09-12T11:42:32.980Z,348.75
2022-09-12T11:43:32.891Z,354.38
2022-09-12T11:44:32.873Z,360.00
2022-09-12T11:45:32.855Z,365.63
2022-09-12T11:46:32.831Z,371.25
2022-09-12T11:47:32.826Z,388.13
2022-09-12T11:48:32.792Z,393.75
2022-09-12T11:49:35.582Z,405.00
2022-09-12T11:50:32.713Z,405.00
2022-09-12T11:51:32.670Z,410.63
2022-09-12T11:52:32.751Z,416.25
2022-09-12T11:53:32.620Z,416.25
2022-09-12T11:54:32.644Z,416.25
2022-09-12T11:55:32.568Z,433.13
2022-09-12T11:56:32.542Z,433.13
2022-09-12T11:57:32.540Z,450.00
2022-09-12T11:58:32.614Z,444.38
2022-09-12T11:59:32.461Z,450.00
2022-09-12T12:00:32.455Z,450.00
2022-09-12T12:01:32.411Z,455.63
2022-09-12T12:02:32.443Z,455.63
2022-09-12T12:03:32.495Z,455.63
2022-09-12T12:04:32.331Z,444.38
2022-09-12T12:05:32.314Z,472.50
2022-09-12T12:06:32.282Z,506.25
2022-09-12T12:07:32.280Z,540.00
2022-09-12T12:08:32.288Z,534.38
2022-09-12T12:09:32.244Z,540.00
2022-09-12T12:10:32.171Z,551.25
2022-09-12T12:11:32.203Z,556.88
2022-09-12T12:12:32.144Z,556.88
2022-09-12T12:13:32.153Z,534.38
2022-09-12T12:14:32.075Z,517.50
2022-09-12T12:15:32.122Z,511.88
2022-09-12T12:16:32.059Z,506.25
2022-09-12T12:17:32.041Z,506.25
2022-09-12T12:18:32.077Z,500.63
2022-09-12T12:19:31.955Z,489.38
2022-09-12T12:20:31.925Z,472.50
2022-09-12T12:21:31.899Z,450.00
2022-09-12T12:22:31.873Z,450.00
2022-09-12T12:23:31.852Z,444.38
2022-09-12T12:24:31.883Z,444.38
2022-09-12T12:25:31.793Z,450.00
2022-09-12T12:26:31.765Z,461.25
2022-09-12T12:27:31.744Z,472.50
2022-09-12T12:28:34.934Z,483.75
2022-09-12T12:29:32.065Z,489.38
2022-09-12T12:30:31.709Z,495.00
2022-09-12T12:31:31.684Z,500.63
2022-09-12T12:32:31.619Z,506.25
2022-09-12T12:33:31.603Z,500.63
2022-09-12T12:34:31.695Z,506.25
2022-09-12T12:35:31.549Z,511.88
2022-09-12T12:36:31.540Z,528.75
2022-09-12T12:37:31.491Z,534.38
2022-09-12T12:38:32.394Z,545.63
2022-09-12T12:39:31.445Z,545.63
2022-09-12T12:40:31.486Z,568.13
2022-09-12T12:41:31.397Z,585.00
2022-09-12T12:42:31.365Z,585.00
2022-09-12T12:43:31.346Z,585.00
2022-09-12T12:44:31.369Z,585.00
2022-09-12T12:45:31.356Z,585.00
2022-09-12T12:46:31.340Z,585.00
2022-09-12T12:47:31.304Z,579.38
2022-09-12T12:48:31.235Z,573.75